createdAt,value
2022-10-19T07:50:38.253Z,0.00
2022-10-19T07:51:38.381Z,0.00
2022-10-19T07:52:39.876Z,0.00
2022-10-19T07:53:38.619Z,0.00
2022-10-19T07:54:38.822Z,0.00
2022-10-19T07:55:38.802Z,0.00
2022-10-19T07:56:40.064Z,0.00
2022-10-19T07:57:40.700Z,0.00
2022-10-19T07:58:39.193Z,0.00
2022-10-19T07:59:39.182Z,0.00
2022-10-19T08:01:39.340Z,0.00
2022-10-19T08:02:54.844Z,0.00
2022-10-19T08:04:31.752Z,0.00
2022-10-19T08:04:59.796Z,66.35
2022-10-19T08:05:40.550Z,63.75
2022-10-19T08:06:39.720Z,64.28
2022-10-19T08:07:39.606Z,64.54
2022-10-19T08:08:40.855Z,64.58
2022-10-19T08:09:52.714Z,65.01
2022-10-19T08:10:40.867Z,65.41
2022-10-19T08:11:39.983Z,65.74
2022-10-19T08:12:39.868Z,65.74
2022-10-19T08:13:41.139Z,66.05
2022-10-19T08:14:40.047Z,66.35
2022-10-19T08:15:41.269Z,66.44
2022-10-19T08:16:40.039Z,66.14
2022-10-19T08:17:41.328Z,66.05
2022-10-19T08:18:40.222Z,66.05
2022-10-19T08:19:40.369Z,66.14
2022-10-19T08:20:40.295Z,66.05
2022-10-19T08:21:41.429Z,66.14
2022-10-19T08:22:40.262Z,66.14
2022-10-19T08:23:41.553Z,66.05
2022-10-19T08:24:40.508Z,66.14
2022-10-19T08:25:40.492Z,66.14
2022-10-19T08:26:40.421Z,65.94
2022-10-19T08:27:41.673Z,65.94
2022-10-19T08:28:40.462Z,66.05
2022-10-19T08:29:43.856Z,66.05
2022-10-19T08:30:40.533Z,66.05
2022-10-19T08:32:01.644Z,65.94
2022-10-19T08:32:40.579Z,66.05
2022-10-19T08:33:40.738Z,65.94
2022-10-19T08:34:40.615Z,65.94
2022-10-19T08:35:41.805Z,66.05
2022-10-19T08:37:45.740Z,65.94
2022-10-19T08:38:40.736Z,66.05
2022-10-19T08:39:42.972Z,65.94
2022-10-19T08:40:40.809Z,67.72
2022-10-19T08:41:40.980Z,67.52
2022-10-19T08:42:40.821Z,62.92
2022-10-19T08:43:41.018Z,63.54
2022-10-19T08:44:40.840Z,64.18
2022-10-19T08:46:40.830Z,64.81
2022-10-19T08:47:40.980Z,65.11
2022-10-19T08:48:40.902Z,66.41
2022-10-19T08:49:41.015Z,65.41
2022-10-19T08:50:40.869Z,65.41
2022-10-19T08:51:41.002Z,65.51
2022-10-19T08:52:40.883Z,65.71
2022-10-19T08:53:42.083Z,66.05
2022-10-19T08:54:40.941Z,65.81
2022-10-19T08:55:42.629Z,65.61
2022-10-19T08:56:56.088Z,65.61
2022-10-19T08:57:41.964Z,65.71
2022-10-19T08:58:42.155Z,65.71
2022-10-19T08:59:41.002Z,65.64
2022-10-19T09:00:41.186Z,65.74
2022-10-19T09:01:40.970Z,65.94
2022-10-19T09:02:43.309Z,65.94
2022-10-19T09:03:55.120Z,65.94
2022-10-19T09:04:42.021Z,65.94
2022-10-19T09:06:02.076Z,65.94
2022-10-19T09:06:41.061Z,66.05
2022-10-19T09:07:42.209Z,66.05
2022-10-19T09:08:41.127Z,66.05
2022-10-19T09:09:42.357Z,66.14
2022-10-19T09:10:41.110Z,66.14
2022-10-19T09:11:43.319Z,66.14
2022-10-19T09:12:41.168Z,66.14
2022-10-19T09:14:03.675Z,66.14
2022-10-19T09:14:42.371Z,66.14
2022-10-19T09:15:41.193Z,66.14
2022-10-19T09:16:42.400Z,66.14
2022-10-19T09:17:41.590Z,66.14
2022-10-19T09:18:41.485Z,66.14
2022-10-19T09:19:41.282Z,66.14
2022-10-19T09:20:41.372Z,66.24
2022-10-19T09:21:47.057Z,66.14
2022-10-19T09:22:42.298Z,66.24
2022-10-19T09:23:42.494Z,66.24
2022-10-19T09:24:41.263Z,66.24
2022-10-19T09:25:41.510Z,66.24
2022-10-19T09:26:41.256Z,66.28
2022-10-19T09:27:42.474Z,66.24
2022-10-19T09:28:41.269Z,66.28
2022-10-19T09:29:41.413Z,66.17
2022-10-19T09:30:41.384Z,66.28
2022-10-19T09:31:42.593Z,66.28
2022-10-19T09:32:41.339Z,66.28
2022-10-19T09:33:41.482Z,66.28
2022-10-19T09:34:41.367Z,66.28
2022-10-19T09:35:42.583Z,66.28
2022-10-19T09:36:56.624Z,66.28
2022-10-19T09:37:42.381Z,66.28
2022-10-19T09:38:42.558Z,66.28
2022-10-19T09:39:47.871Z,66.28
2022-10-19T09:40:42.429Z,66.28
2022-10-19T09:41:41.712Z,66.28
2022-10-19T09:42:41.513Z,66.28
2022-10-19T09:43:42.671Z,66.28
2022-10-19T09:44:41.551Z,66.28
2022-10-19T09:45:42.739Z,66.28
2022-10-19T09:46:41.604Z,66.28
2022-10-19T09:48:08.569Z,66.28
2022-10-19T09:48:42.583Z,66.28
2022-10-19T09:50:03.792Z,66.28
2022-10-19T09:50:41.793Z,66.28
2022-10-19T09:51:42.765Z,66.17
2022-10-19T09:52:41.663Z,66.17
2022-10-19T09:53:42.787Z,66.17
2022-10-19T09:54:41.801Z,66.17
2022-10-19T09:55:41.867Z,66.17
2022-10-19T09:56:41.701Z,66.17
2022-10-19T09:57:42.881Z,66.08
2022-10-19T09:58:41.751Z,66.08
2022-10-19T09:59:41.880Z,66.08
2022-10-19T10:00:41.730Z,66.08
2022-10-19T10:01:43.540Z,66.08
2022-10-19T10:02:41.783Z,66.08
2022-10-19T10:03:42.974Z,66.08
2022-10-19T10:04:41.768Z,66.08
2022-10-19T10:05:42.858Z,66.08
2022-10-19T10:06:41.785Z,66.08
2022-10-19T10:07:42.955Z,66.08
2022-10-19T10:08:41.831Z,66.08
2022-10-19T10:09:42.002Z,66.08
2022-10-19T10:11:07.802Z,66.08
2022-10-19T10:15:28.889Z,66.17
2022-10-19T10:16:29.071Z,66.08
2022-10-19T10:17:29.259Z,66.08
2022-10-19T10:18:29.431Z,66.08
2022-10-19T10:19:29.561Z,66.08
2022-10-19T10:20:29.740Z,66.08
2022-10-19T10:21:29.932Z,66.08
2022-10-19T10:22:30.122Z,66.08
2022-10-19T10:23:30.314Z,66.08
2022-10-19T10:24:30.494Z,66.08
2022-10-19T10:25:30.674Z,65.97
2022-10-19T10:26:30.926Z,65.97
2022-10-19T10:27:27.914Z,65.94
2022-10-19T10:28:28.076Z,65.74
2022-10-19T10:29:28.225Z,65.74
2022-10-19T10:30:28.386Z,65.64
2022-10-19T10:31:28.544Z,65.74
2022-10-19T10:32:28.723Z,65.74
2022-10-19T10:33:40.689Z,65.74
2022-10-19T10:34:37.947Z,65.74
2022-10-19T10:35:30.032Z,65.74
2022-10-19T10:36:29.166Z,65.84
2022-10-19T10:37:29.351Z,65.74
2022-10-19T10:38:29.438Z,65.74
2022-10-19T10:39:29.588Z,65.84
2022-10-19T10:40:29.739Z,65.74
